Time;durP1;ratioP1;P1;durP2;ratioP2;P2;SDS_P1;SDS_P2;PMS_P1;PMS_P2;Temp;Humidity;BMP_temperature;BMP_pressure;BME280_temperature;BME280_humidity;BME280_pressure;Samples;Min_cycle;Max_cycle;Signal;HPM_P1;HPM_P2
2022/06/22 00:01:58;;;;;;;;;;;10.10;99.90;;;;;;5085587;27;19962;-78
2022/06/22 00:04:27;;;;;;;;;;;10.20;99.90;;;;;;5131039;27;20341;-77
2022/06/22 00:06:54;;;;;;;;;;;10.30;99.90;;;;;;5131604;27;19920;-77
2022/06/22 00:09:22;;;;;;;;;;;10.20;99.90;;;;;;5131040;27;19920;-77
2022/06/22 00:11:48;;;;;;;;;;;10.30;99.90;;;;;;5114611;28;19943;-77
2022/06/22 00:14:17;;;;;;;;;;;10.30;99.90;;;;;;5118784;27;20372;-78
2022/06/22 00:16:47;;;;;;;;;;;10.20;99.90;;;;;;5110320;28;19969;-77
2022/06/22 00:19:21;;;;;;;;;;;10.20;99.90;;;;;;5122383;28;20323;-77
2022/06/22 00:21:48;;;;;;;;;;;10.10;99.90;;;;;;5125699;28;19931;-77
2022/06/22 00:24:23;;;;;;;;;;;10.10;99.90;;;;;;5094366;28;20285;-77
2022/06/22 00:26:57;;;;;;;;;;;9.90;99.90;;;;;;5124343;28;20006;-77
2022/06/22 00:29:24;;;;;;;;;;;10.00;99.90;;;;;;5111282;28;20312;-76
2022/06/22 00:31:49;;;;;;;;;;;10.00;99.90;;;;;;5093763;28;19920;-77
2022/06/22 00:34:22;;;;;;;;;;;10.00;99.90;;;;;;5110593;28;19920;-77
2022/06/22 00:36:48;;;;;;;;;;;10.00;99.90;;;;;;5110676;28;19924;-77
2022/06/22 00:39:13;;;;;;;;;;;10.00;99.90;;;;;;5111785;28;19931;-77
2022/06/22 00:41:39;;;;;;;;;;;10.00;99.90;;;;;;5110712;28;19933;-77
2022/06/22 00:44:06;;;;;;;;;;;10.00;99.90;;;;;;5130034;28;19939;-77
2022/06/22 00:46:32;;;;;;;;;;;10.00;99.90;;;;;;5131090;28;20002;-77
2022/06/22 00:48:58;;;;;;;;;;;9.90;99.90;;;;;;5091097;28;19931;-77
2022/06/22 00:51:27;;;;;;;;;;;9.80;99.90;;;;;;5115336;28;19926;-77
2022/06/22 00:53:55;;;;;;;;;;;9.80;99.90;;;;;;5131289;28;20380;-77
2022/06/22 00:56:47;;;;;;;;;;;9.60;99.90;;;;;;5131315;28;19919;-77
2022/06/22 00:59:16;;;;;;;;;;;9.70;99.90;;;;;;5109818;28;19919;-77
2022/06/22 01:01:46;;;;;;;;;;;9.80;99.90;;;;;;5131012;28;19963;-77
2022/06/22 01:04:17;;;;;;;;;;;9.70;99.90;;;;;;5130926;28;19934;-78
2022/06/22 01:06:55;;;;;;;;;;;9.80;99.90;;;;;;5093836;28;20305;-78
2022/06/22 01:09:36;;;;;;;;;;;10.00;99.90;;;;;;5120300;28;19926;-76
2022/06/22 01:12:16;;;;;;;;;;;9.30;99.90;;;;;;5081378;28;20300;-77
2022/06/22 01:14:42;;;;;;;;;;;9.60;99.90;;;;;;5126911;28;19984;-77
2022/06/22 01:17:12;;;;;;;;;;;9.50;99.90;;;;;;5131272;28;20368;-77
2022/06/22 01:19:58;;;;;;;;;;;9.50;99.90;;;;;;5115753;28;20281;-76
2022/06/22 01:22:29;;;;;;;;;;;9.20;99.90;;;;;;5119918;28;20043;-78
2022/06/22 01:24:58;;;;;;;;;;;9.20;99.90;;;;;;5127461;28;20014;-76
2022/06/22 01:27:31;;;;;;;;;;;9.00;99.90;;;;;;5119258;28;19949;-77
2022/06/22 01:30:00;;;;;;;;;;;9.00;99.90;;;;;;5132828;27;19964;-76
2022/06/22 01:32:30;;;;;;;;;;;9.00;99.90;;;;;;5134513;27;19972;-76
2022/06/22 01:34:59;;;;;;;;;;;8.90;99.90;;;;;;5133223;27;19971;-77
2022/06/22 01:37:26;;;;;;;;;;;8.90;99.90;;;;;;5134678;27;19919;-77
2022/06/22 01:40:00;;;;;;;;;;;8.80;99.90;;;;;;5118576;27;20014;-76
2022/06/22 01:42:41;;;;;;;;;;;8.80;99.90;;;;;;5109135;27;19968;-76
2022/06/22 01:45:18;;;;;;;;;;;8.80;99.90;;;;;;5133852;27;20380;-76
2022/06/22 01:47:55;;;;;;;;;;;8.70;99.90;;;;;;5131034;27;20333;-77
2022/06/22 01:50:25;;;;;;;;;;;8.60;99.90;;;;;;5092498;28;19927;-77
2022/06/22 01:52:58;;;;;;;;;;;8.60;99.90;;;;;;5114735;27;19996;-77
2022/06/22 01:55:23;;;;;;;;;;;8.60;99.90;;;;;;5107166;27;19927;-77
2022/06/22 01:57:58;;;;;;;;;;;8.60;99.90;;;;;;5112236;27;20003;-77
2022/06/22 02:00:24;;;;;;;;;;;8.60;99.90;;;;;;5113780;28;19985;-77
2022/06/22 02:02:53;;;;;;;;;;;8.60;99.90;;;;;;5095553;28;19920;-77
2022/06/22 02:05:28;;;;;;;;;;;8.50;99.90;;;;;;5113670;28;19928;-78
2022/06/22 02:07:59;;;;;;;;;;;8.60;99.90;;;;;;5112914;28;19923;-77
2022/06/22 02:10:34;;;;;;;;;;;8.50;99.90;;;;;;5096938;28;20289;-77
2022/06/22 02:13:18;;;;;;;;;;;8.50;99.90;;;;;;5115895;27;19931;-77
2022/06/22 02:15:47;;;;;;;;;;;8.50;99.90;;;;;;5116596;27;19930;-77
2022/06/22 02:18:12;;;;;;;;;;;8.50;99.90;;;;;;5129013;27;19923;-77
2022/06/22 02:20:38;;;;;;;;;;;8.50;99.90;;;;;;5113522;28;19927;-77
2022/06/22 02:23:07;;;;;;;;;;;8.50;99.90;;;;;;5115094;27;19981;-78
2022/06/22 02:25:35;;;;;;;;;;;8.60;99.90;;;;;;5108118;28;19936;-77
2022/06/22 02:28:01;;;;;;;;;;;8.50;99.90;;;;;;5112963;28;20373;-77
2022/06/22 02:30:26;;;;;;;;;;;8.50;99.90;;;;;;5113358;28;19920;-77
2022/06/22 02:32:52;;;;;;;;;;;8.80;99.90;;;;;;5112076;28;19919;-77
2022/06/22 02:35:18;;;;;;;;;;;8.40;99.90;;;;;;5113075;28;20007;-78
2022/06/22 02:37:52;;;;;;;;;;;8.30;99.90;;;;;;5112782;28;19924;-77
2022/06/22 02:40:21;;;;;;;;;;;8.30;99.90;;;;;;5112710;28;19920;-78
2022/06/22 02:45:31;;;;;;;;;;;8.60;99.90;;;;;;5112913;28;19972;-77
2022/06/22 02:48:20;;;;;;;;;;;8.30;99.90;;;;;;5112719;27;20012;-77
2022/06/22 02:50:58;;;;;;;;;;;8.30;99.90;;;;;;5102621;28;20292;-77
2022/06/22 02:53:34;;;;;;;;;;;8.40;99.90;;;;;;5100081;28;19928;-77
2022/06/22 02:56:00;;;;;;;;;;;8.30;99.90;;;;;;5112365;28;20343;-77
2022/06/22 02:58:27;;;;;;;;;;;8.30;99.90;;;;;;5111727;28;19923;-77
2022/06/22 03:00:53;;;;;;;;;;;8.30;99.90;;;;;;5126216;27;19973;-78
2022/06/22 03:03:19;;;;;;;;;;;8.30;99.90;;;;;;5124761;27;19959;-78
2022/06/22 03:05:46;;;;;;;;;;;8.30;99.90;;;;;;5110985;28;19945;-78
2022/06/22 03:08:13;;;;;;;;;;;8.00;99.90;;;;;;5110866;28;19962;-78
2022/06/22 03:10:50;;;;;;;;;;;8.40;99.90;;;;;;5111580;28;19940;-78
2022/06/22 03:13:17;;;;;;;;;;;8.30;99.90;;;;;;5111915;28;19923;-78
2022/06/22 03:15:44;;;;;;;;;;;8.30;99.90;;;;;;5095424;28;19930;-78
2022/06/22 03:18:15;;;;;;;;;;;8.30;99.90;;;;;;5111747;28;20253;-77
2022/06/22 03:20:45;;;;;;;;;;;8.30;99.90;;;;;;5095528;28;20296;-77
2022/06/22 03:23:43;;;;;;;;;;;8.40;99.90;;;;;;5112155;28;19927;-78
2022/06/22 03:26:12;;;;;;;;;;;8.30;99.90;;;;;;5056541;28;19927;-77
2022/06/22 03:28:39;;;;;;;;;;;8.30;99.90;;;;;;5111011;28;20288;-77
2022/06/22 03:31:06;;;;;;;;;;;8.50;99.90;;;;;;5111687;28;20429;-78
2022/06/22 03:33:35;;;;;;;;;;;8.40;99.90;;;;;;5111349;28;19942;-77
2022/06/22 03:36:04;;;;;;;;;;;8.40;99.90;;;;;;5121177;27;19926;-77
2022/06/22 03:38:34;;;;;;;;;;;8.50;99.90;;;;;;5116299;27;19919;-77
2022/06/22 03:41:08;;;;;;;;;;;8.70;99.90;;;;;;5111863;28;19926;-78
2022/06/22 03:43:54;;;;;;;;;;;8.70;99.90;;;;;;5111503;28;19931;-77
2022/06/22 03:46:22;;;;;;;;;;;8.80;99.90;;;;;;5112174;28;19919;-78
2022/06/22 03:48:52;;;;;;;;;;;8.90;99.90;;;;;;5108504;27;19920;-78
2022/06/22 03:51:21;;;;;;;;;;;9.10;99.90;;;;;;5114508;28;19991;-78
2022/06/22 03:53:51;;;;;;;;;;;8.90;99.90;;;;;;5103716;28;19927;-78
2022/06/22 03:56:22;;;;;;;;;;;9.00;99.90;;;;;;5111698;28;19920;-78
2022/06/22 03:58:49;;;;;;;;;;;9.00;99.90;;;;;;5080844;28;20267;-77
2022/06/22 04:01:15;;;;;;;;;;;9.20;99.90;;;;;;5106968;27;19955;-77
2022/06/22 04:03:41;;;;;;;;;;;9.00;99.90;;;;;;5131366;27;20500;-78
2022/06/22 04:06:07;;;;;;;;;;;9.10;99.90;;;;;;5131557;27;19948;-78
2022/06/22 04:08:38;;;;;;;;;;;9.10;99.90;;;;;;5131893;27;19928;-78
2022/06/22 04:11:09;;;;;;;;;;;9.10;99.90;;;;;;5114571;28;19924;-78
2022/06/22 04:13:41;;;;;;;;;;;9.20;99.90;;;;;;5119852;27;20388;-78
2022/06/22 04:16:13;;;;;;;;;;;9.30;99.90;;;;;;5116180;27;20015;-77
2022/06/22 04:18:41;;;;;;;;;;;9.40;99.90;;;;;;5111142;28;19920;-78
2022/06/22 04:21:08;;;;;;;;;;;9.50;99.90;;;;;;5125783;28;19980;-78
2022/06/22 04:23:49;;;;;;;;;;;9.60;99.90;;;;;;5131806;28;19982;-78
2022/06/22 04:26:19;;;;;;;;;;;9.70;99.90;;;;;;5115243;28;20272;-78
2022/06/22 04:28:46;;;;;;;;;;;9.80;99.90;;;;;;5104889;28;20338;-78
2022/06/22 04:31:24;;;;;;;;;;;9.90;99.90;;;;;;5128402;28;19920;-77
2022/06/22 04:33:58;;;;;;;;;;;10.00;99.90;;;;;;5120240;28;19962;-77
2022/06/22 04:36:44;;;;;;;;;;;10.10;99.90;;;;;;5116863;28;19927;-77
2022/06/22 04:39:10;;;;;;;;;;;10.20;99.90;;;;;;5108971;28;19919;-77
2022/06/22 04:41:36;;;;;;;;;;;10.30;99.90;;;;;;5131669;28;19920;-78
2022/06/22 04:44:10;;;;;;;;;;;10.40;99.90;;;;;;5123187;28;20406;-78
2022/06/22 04:46:39;;;;;;;;;;;10.50;99.90;;;;;;5116988;28;19956;-79
2022/06/22 04:49:16;;;;;;;;;;;10.60;99.90;;;;;;5115438;28;19920;-77
2022/06/22 04:51:45;;;;;;;;;;;10.70;99.90;;;;;;5109355;28;19920;-78
2022/06/22 04:54:28;;;;;;;;;;;10.80;99.90;;;;;;5110501;28;19959;-77
2022/06/22 04:56:54;;;;;;;;;;;10.90;99.90;;;;;;5110608;28;19924;-77
2022/06/22 04:59:20;;;;;;;;;;;10.90;99.90;;;;;;5122760;28;19920;-77
2022/06/22 05:01:46;;;;;;;;;;;11.10;99.90;;;;;;5112117;28;19920;-77
2022/06/22 05:04:22;;;;;;;;;;;11.20;99.90;;;;;;5106963;27;20345;-77
2022/06/22 05:06:55;;;;;;;;;;;11.30;99.90;;;;;;5115621;27;19972;-77
2022/06/22 05:09:40;;;;;;;;;;;11.40;99.90;;;;;;5114699;28;19919;-77
2022/06/22 05:12:12;;;;;;;;;;;11.50;99.90;;;;;;5107946;27;19919;-77
2022/06/22 05:14:39;;;;;;;;;;;11.70;99.90;;;;;;5134959;27;19925;-78
2022/06/22 05:17:21;;;;;;;;;;;11.80;99.90;;;;;;5134772;27;19964;-76
2022/06/22 05:19:48;;;;;;;;;;;11.90;99.90;;;;;;5132074;27;19927;-77
2022/06/22 05:22:15;;;;;;;;;;;12.00;99.90;;;;;;5114103;28;19924;-77
2022/06/22 05:24:44;;;;;;;;;;;12.10;99.90;;;;;;5114190;28;19924;-77
2022/06/22 05:27:11;;;;;;;;;;;12.30;99.90;;;;;;5109807;28;19973;-77
2022/06/22 05:29:39;;;;;;;;;;;12.40;99.90;;;;;;5114111;28;19927;-77
2022/06/22 05:32:14;;;;;;;;;;;12.50;99.90;;;;;;5113933;28;19920;-77
2022/06/22 05:34:41;;;;;;;;;;;12.60;99.90;;;;;;5096506;28;19931;-78
2022/06/22 05:37:12;;;;;;;;;;;12.70;99.90;;;;;;5121803;27;19967;-77
2022/06/22 05:39:39;;;;;;;;;;;12.90;99.90;;;;;;5121031;27;19920;-77
2022/06/22 05:42:05;;;;;;;;;;;13.00;99.90;;;;;;5134305;27;19963;-77
2022/06/22 05:44:31;;;;;;;;;;;13.00;99.90;;;;;;5123009;27;19923;-78
2022/06/22 05:46:59;;;;;;;;;;;13.10;99.90;;;;;;5134140;27;19920;-77
2022/06/22 05:49:40;;;;;;;;;;;13.20;99.90;;;;;;5100659;28;20273;-77
2022/06/22 05:52:17;;;;;;;;;;;13.30;99.90;;;;;;5084777;28;20052;-77
2022/06/22 05:54:50;;;;;;;;;;;13.40;99.90;;;;;;5113362;28;19930;-77
2022/06/22 05:57:39;;;;;;;;;;;13.50;99.90;;;;;;5105690;28;20293;-77
2022/06/22 06:00:05;;;;;;;;;;;13.50;99.90;;;;;;5111090;28;20002;-77
2022/06/22 06:02:50;;;;;;;;;;;13.70;99.90;;;;;;5113527;28;20399;-77
2022/06/22 06:05:27;;;;;;;;;;;13.80;99.90;;;;;;5116868;27;20300;-77
2022/06/22 06:07:57;;;;;;;;;;;13.90;99.90;;;;;;5134177;27;19955;-77
2022/06/22 06:10:24;;;;;;;;;;;14.00;99.90;;;;;;5134105;27;19958;-77
2022/06/22 06:12:55;;;;;;;;;;;14.10;99.90;;;;;;5134014;27;20261;-77
2022/06/22 06:15:21;;;;;;;;;;;14.20;99.90;;;;;;5130714;27;19929;-77
2022/06/22 06:17:48;;;;;;;;;;;14.30;99.90;;;;;;5104934;28;20380;-77
2022/06/22 06:20:20;;;;;;;;;;;14.40;99.90;;;;;;5100239;27;20403;-77
2022/06/22 06:22:46;;;;;;;;;;;14.40;99.90;;;;;;5116601;27;20464;-78
2022/06/22 06:28:04;;;;;;;;;;;14.60;99.90;;;;;;5112766;28;19924;-78
2022/06/22 06:30:49;;;;;;;;;;;14.80;99.90;;;;;;5113188;28;20366;-77
2022/06/22 06:33:21;;;;;;;;;;;14.90;99.90;;;;;;5111259;28;19931;-77
2022/06/22 06:35:53;;;;;;;;;;;15.00;99.90;;;;;;5100090;28;19944;-77
2022/06/22 06:38:25;;;;;;;;;;;15.10;99.90;;;;;;5126489;27;19927;-77
2022/06/22 06:41:09;;;;;;;;;;;15.30;99.90;;;;;;5112726;28;19927;-77
2022/06/22 06:43:36;;;;;;;;;;;15.40;99.90;;;;;;5112328;28;19939;-77
2022/06/22 06:46:03;;;;;;;;;;;15.60;99.90;;;;;;5109929;28;20010;-77
2022/06/22 06:48:30;;;;;;;;;;;15.70;99.90;;;;;;5101606;28;19927;-77
2022/06/22 06:50:58;;;;;;;;;;;15.80;99.90;;;;;;5110942;27;20373;-76
2022/06/22 06:53:33;;;;;;;;;;;15.90;99.90;;;;;;5104750;27;19927;-77
2022/06/22 06:56:14;;;;;;;;;;;16.00;99.90;;;;;;5118750;27;19919;-77
2022/06/22 06:58:43;;;;;;;;;;;16.10;99.90;;;;;;5112355;28;19969;-77
2022/06/22 07:01:15;;;;;;;;;;;16.10;99.90;;;;;;5112073;28;20376;-77
2022/06/22 07:03:41;;;;;;;;;;;16.20;99.90;;;;;;5112024;28;20060;-77
2022/06/22 07:06:07;;;;;;;;;;;16.20;99.90;;;;;;5094921;28;19977;-77
2022/06/22 07:08:35;;;;;;;;;;;16.30;99.90;;;;;;5113684;28;19969;-77
2022/06/22 07:11:13;;;;;;;;;;;16.40;99.90;;;;;;5095094;28;19920;-77
2022/06/22 07:13:42;;;;;;;;;;;16.50;99.90;;;;;;5111830;28;19919;-77
2022/06/22 07:16:12;;;;;;;;;;;16.60;99.90;;;;;;5094606;28;19919;-77
2022/06/22 07:18:40;;;;;;;;;;;16.70;99.90;;;;;;5111294;28;19927;-77
2022/06/22 07:21:14;;;;;;;;;;;16.80;99.90;;;;;;5109215;27;19919;-77
2022/06/22 07:24:00;;;;;;;;;;;16.90;99.90;;;;;;5123916;27;19968;-77
2022/06/22 07:26:29;;;;;;;;;;;17.00;99.90;;;;;;5094041;28;19924;-77
2022/06/22 07:29:15;;;;;;;;;;;17.10;99.90;;;;;;5111685;28;19923;-77
2022/06/22 07:31:44;;;;;;;;;;;17.10;99.90;;;;;;5112634;27;19928;-77
2022/06/22 07:34:17;;;;;;;;;;;17.10;99.90;;;;;;5110644;28;19926;-78
2022/06/22 07:36:48;;;;;;;;;;;17.10;99.90;;;;;;5101872;27;19928;-77
2022/06/22 07:39:18;;;;;;;;;;;17.10;99.90;;;;;;5094168;28;19923;-78
2022/06/22 07:41:43;;;;;;;;;;;17.20;99.90;;;;;;5111469;28;20003;-77
2022/06/22 07:44:30;;;;;;;;;;;17.30;99.90;;;;;;5111351;27;20030;-77
2022/06/22 07:47:05;;;;;;;;;;;17.50;99.90;;;;;;5132047;27;20420;-77
2022/06/22 07:49:53;;;;;;;;;;;17.70;99.90;;;;;;5113221;27;19927;-77
2022/06/22 07:52:22;;;;;;;;;;;17.90;99.90;;;;;;5111129;28;20004;-77
2022/06/22 07:54:50;;;;;;;;;;;18.00;99.90;;;;;;5110882;28;20035;-77
2022/06/22 07:57:21;;;;;;;;;;;18.10;99.90;;;;;;5110785;28;20211;-77
2022/06/22 07:59:49;;;;;;;;;;;18.10;99.90;;;;;;5112004;28;20019;-77
2022/06/22 08:02:16;;;;;;;;;;;18.20;99.90;;;;;;5122083;27;19972;-77
2022/06/22 08:04:45;;;;;;;;;;;19.00;99.90;;;;;;5113562;27;20345;-77
2022/06/22 08:07:14;;;;;;;;;;;18.20;99.90;;;;;;5111295;28;19927;-77
2022/06/22 08:09:50;;;;;;;;;;;18.30;99.90;;;;;;5125986;27;20435;-77
2022/06/22 08:12:20;;;;;;;;;;;18.40;99.90;;;;;;5122748;27;19945;-77
2022/06/22 08:14:48;;;;;;;;;;;18.40;99.90;;;;;;5093705;28;19972;-78
2022/06/22 08:17:20;;;;;;;;;;;18.50;99.90;;;;;;5110741;28;19949;-77
2022/06/22 08:19:46;;;;;;;;;;;18.60;99.90;;;;;;5110599;28;19924;-77
2022/06/22 08:22:12;;;;;;;;;;;18.60;99.90;;;;;;5094189;28;19942;-77
2022/06/22 08:24:41;;;;;;;;;;;18.70;99.90;;;;;;5111294;28;19928;-77
2022/06/22 08:27:10;;;;;;;;;;;18.70;99.90;;;;;;5128817;28;19919;-77
2022/06/22 08:29:37;;;;;;;;;;;18.70;99.90;;;;;;5132066;28;19926;-77
2022/06/22 08:32:08;;;;;;;;;;;18.80;99.90;;;;;;5131570;28;19920;-77
2022/06/22 08:34:37;;;;;;;;;;;18.90;99.90;;;;;;5130879;28;20129;-77
2022/06/22 08:37:10;;;;;;;;;;;19.10;99.90;;;;;;5109382;28;19959;-76
2022/06/22 08:39:39;;;;;;;;;;;19.20;99.90;;;;;;5099143;28;19996;-78
2022/06/22 08:42:12;;;;;;;;;;;19.20;99.90;;;;;;5117042;27;19923;-77
2022/06/22 08:44:38;;;;;;;;;;;19.30;99.90;;;;;;5132737;27;19924;-77
2022/06/22 08:47:10;;;;;;;;;;;19.30;99.90;;;;;;5100411;28;20048;-77
2022/06/22 08:49:41;;;;;;;;;;;19.20;99.90;;;;;;5114208;27;20935;-77
2022/06/22 08:52:33;;;;;;;;;;;19.20;99.90;;;;;;5114858;28;19920;-77
2022/06/22 08:54:58;;;;;;;;;;;19.10;99.90;;;;;;5108629;28;19935;-77
2022/06/22 08:57:42;;;;;;;;;;;19.10;99.90;;;;;;5114393;28;20687;-77
2022/06/22 09:00:32;;;;;;;;;;;19.10;99.90;;;;;;5085045;28;20292;-77
2022/06/22 09:03:16;;;;;;;;;;;19.10;99.90;;;;;;5099824;27;20015;-77
2022/06/22 09:05:57;;;;;;;;;;;19.20;99.90;;;;;;5118208;27;19929;-77
2022/06/22 09:08:41;;;;;;;;;;;19.40;99.90;;;;;;5135076;27;20001;-78
2022/06/22 09:11:19;;;;;;;;;;;19.40;99.90;;;;;;5118251;27;20038;-76
2022/06/22 09:13:44;;;;;;;;;;;19.40;99.90;;;;;;5114635;28;19920;-76
2022/06/22 09:16:16;;;;;;;;;;;19.50;99.90;;;;;;5114338;28;19973;-76
2022/06/22 09:19:08;;;;;;;;;;;19.70;99.90;;;;;;5115590;28;19919;-76
2022/06/22 09:21:33;;;;;;;;;;;19.80;99.90;;;;;;5113380;28;19923;-76
2022/06/22 09:24:14;;;;;;;;;;;19.80;99.90;;;;;;5114585;28;19930;-76
2022/06/22 09:26:59;;;;;;;;;;;19.90;99.90;;;;;;5113875;28;19919;-76
2022/06/22 09:29:39;;;;;;;;;;;20.10;99.90;;;;;;5113824;28;19924;-76
2022/06/22 09:32:10;;;;;;;;;;;20.10;99.90;;;;;;5114154;28;19980;-76
2022/06/22 09:34:41;;;;;;;;;;;20.10;99.90;;;;;;5113367;28;19967;-76
2022/06/22 09:37:26;;;;;;;;;;;20.20;99.90;;;;;;5105440;28;19919;-76
2022/06/22 09:40:10;;;;;;;;;;;20.20;99.90;;;;;;5131780;27;20410;-76
2022/06/22 09:42:36;;;;;;;;;;;20.30;99.90;;;;;;5120937;27;19920;-76
2022/06/22 09:45:10;;;;;;;;;;;20.50;99.90;;;;;;5113686;28;20266;-76
2022/06/22 09:47:51;;;;;;;;;;;20.70;99.90;;;;;;5107006;27;19927;-76
2022/06/22 09:50:26;;;;;;;;;;;20.70;99.90;;;;;;5109739;28;19920;-76
2022/06/22 09:52:58;;;;;;;;;;;20.70;99.90;;;;;;5113703;28;19920;-76
2022/06/22 09:58:23;;;;;;;;;;;20.90;99.90;;;;;;5114873;27;20081;-76
2022/06/22 10:00:55;;;;;;;;;;;20.90;99.90;;;;;;5113898;28;20000;-76
2022/06/22 10:03:20;;;;;;;;;;;21.00;99.90;;;;;;5132478;27;20328;-75
2022/06/22 10:05:59;;;;;;;;;;;21.00;99.90;;;;;;5133905;27;19966;-76
2022/06/22 10:08:43;;;;;;;;;;;20.80;99.90;;;;;;5134910;27;20428;-76
2022/06/22 10:11:12;;;;;;;;;;;20.80;99.90;;;;;;5134028;27;19930;-76
2022/06/22 10:13:43;;;;;;;;;;;20.70;99.90;;;;;;5125918;27;19920;-76
2022/06/22 10:16:16;;;;;;;;;;;20.50;99.90;;;;;;5105265;28;19920;-76
2022/06/22 10:18:48;;;;;;;;;;;20.60;99.90;;;;;;5112548;28;19920;-76
2022/06/22 10:21:17;;;;;;;;;;;20.60;99.90;;;;;;5113518;28;19946;-76
2022/06/22 10:24:00;;;;;;;;;;;20.60;99.90;;;;;;5113244;28;20019;-76
2022/06/22 10:26:28;;;;;;;;;;;20.40;99.90;;;;;;5095742;28;19923;-76
2022/06/22 10:28:54;;;;;;;;;;;20.40;99.90;;;;;;5095959;28;19928;-76
2022/06/22 10:31:25;;;;;;;;;;;20.40;99.90;;;;;;5095672;28;19927;-76
2022/06/22 10:34:15;;;;;;;;;;;20.50;99.90;;;;;;5119751;27;19919;-77
2022/06/22 10:36:47;;;;;;;;;;;20.60;99.90;;;;;;5116064;27;19934;-77
2022/06/22 10:39:31;;;;;;;;;;;20.70;99.90;;;;;;5124010;27;19926;-77
2022/06/22 10:45:09;;;;;;;;;;;21.00;99.90;;;;;;5112522;28;19932;-77
2022/06/22 10:47:44;;;;;;;;;;;21.20;99.90;;;;;;5122638;27;19919;-76
2022/06/22 10:50:10;;;;;;;;;;;21.40;99.90;;;;;;5091785;28;19950;-76
2022/06/22 10:52:45;;;;;;;;;;;21.50;99.90;;;;;;5095397;28;19966;-76
2022/06/22 10:55:40;;;;;;;;;;;21.60;99.90;;;;;;5112592;28;20455;-77
2022/06/22 10:58:06;;;;;;;;;;;21.70;99.90;;;;;;5099179;28;20385;-76
2022/06/22 11:00:35;;;;;;;;;;;21.90;99.90;;;;;;5112360;28;19954;-77
2022/06/22 11:03:19;;;;;;;;;;;22.10;99.90;;;;;;5111872;28;19927;-76
2022/06/22 11:06:02;;;;;;;;;;;22.20;99.90;;;;;;5112222;28;20301;-76
2022/06/22 11:08:32;;;;;;;;;;;22.40;99.90;;;;;;5094897;28;20007;-76
2022/06/22 11:11:17;;;;;;;;;;;22.50;99.90;;;;;;5108819;27;19923;-77
2022/06/22 11:13:42;;;;;;;;;;;22.80;99.90;;;;;;5132556;27;19957;-77
2022/06/22 11:16:15;;;;;;;;;;;22.90;99.90;;;;;;5118162;27;19920;-76
2022/06/22 11:18:41;;;;;;;;;;;23.00;99.90;;;;;;5114632;27;19976;-77
2022/06/22 11:21:14;;;;;;;;;;;22.50;99.90;;;;;;5133519;27;19920;-76
2022/06/22 11:23:39;;;;;;;;;;;22.80;99.90;;;;;;5132307;27;19926;-76
2022/06/22 11:32:06;;;;;;;;;;;22.70;99.90;;;;;;5111955;28;20426;-76
2022/06/22 11:34:41;;;;;;;;;;;23.10;99.90;;;;;;5110805;28;19968;-77
2022/06/22 11:37:08;;;;;;;;;;;23.30;99.90;;;;;;5103348;27;19926;-77
2022/06/22 11:40:03;;;;;;;;;;;23.20;99.90;;;;;;5132137;27;19923;-76
2022/06/22 11:42:31;;;;;;;;;;;23.30;99.90;;;;;;5025378;28;19927;-76
2022/06/22 11:47:59;;;;;;;;;;;23.10;99.90;;;;;;5119557;27;19942;-76
2022/06/22 11:50:44;;;;;;;;;;;23.10;99.90;;;;;;5110864;28;20418;-76
2022/06/22 11:53:09;;;;;;;;;;;23.10;99.90;;;;;;5111653;28;19963;-76
2022/06/22 11:55:37;;;;;;;;;;;23.10;99.90;;;;;;5111251;28;19963;-76
2022/06/22 11:58:21;;;;;;;;;;;23.20;99.90;;;;;;5112901;28;19923;-77
2022/06/22 12:00:47;;;;;;;;;;;23.20;99.90;;;;;;5124590;27;19924;-76
2022/06/22 12:03:24;;;;;;;;;;;23.40;99.90;;;;;;5112187;27;19926;-76
2022/06/22 12:06:05;;;;;;;;;;;23.70;99.90;;;;;;5122794;27;19930;-76
2022/06/22 12:08:43;;;;;;;;;;;23.70;99.90;;;;;;5111529;28;19959;-76
2022/06/22 12:11:15;;;;;;;;;;;23.80;99.90;;;;;;5094171;28;19927;-77
2022/06/22 12:15:04;;;;;;;;;;;23.80;99.90;;;;;;5098879;28;20025;-76
2022/06/22 12:16:47;;;;;;;;;;;23.70;99.90;;;;;;5111883;27;19920;-76
2022/06/22 12:19:20;;;;;;;;;;;23.60;99.90;;;;;;5109790;28;20471;-76
2022/06/22 12:22:04;;;;;;;;;;;23.50;99.90;;;;;;5114968;28;20234;-76
2022/06/22 12:24:55;;;;;;;;;;;23.40;99.90;;;;;;5118536;28;19973;-76
2022/06/22 12:27:26;;;;;;;;;;;23.40;99.90;;;;;;5124853;27;19927;-75
2022/06/22 12:30:04;;;;;;;;;;;23.40;99.90;;;;;;5131520;28;19923;-75
2022/06/22 12:32:34;;;;;;;;;;;23.50;99.90;;;;;;5121252;28;19969;-75
2022/06/22 12:35:05;;;;;;;;;;;23.50;99.90;;;;;;5110178;28;20373;-75
2022/06/22 12:37:52;;;;;;;;;;;23.90;99.90;;;;;;5110988;28;19920;-76
2022/06/22 12:40:34;;;;;;;;;;;24.20;99.90;;;;;;5111458;28;20002;-76
2022/06/22 12:43:02;;;;;;;;;;;24.50;96.60;;;;;;5073897;28;19970;-75
2022/06/22 12:45:28;;;;;;;;;;;24.30;98.20;;;;;;5112039;28;20368;-75
2022/06/22 12:48:03;;;;;;;;;;;24.30;99.90;;;;;;5125335;28;19947;-76
2022/06/22 12:50:48;;;;;;;;;;;24.50;99.80;;;;;;5105506;28;19926;-76
2022/06/22 12:53:29;;;;;;;;;;;24.50;96.50;;;;;;5110597;28;19924;-76
2022/06/22 12:55:58;;;;;;;;;;;24.60;97.90;;;;;;5093930;28;19923;-76
2022/06/22 12:58:27;;;;;;;;;;;24.90;97.40;;;;;;5111905;28;19923;-76
2022/06/22 13:00:55;;;;;;;;;;;25.20;95.70;;;;;;5110504;28;19920;-76
2022/06/22 13:03:23;;;;;;;;;;;25.70;97.40;;;;;;5110287;28;19928;-76
2022/06/22 13:05:50;;;;;;;;;;;25.90;96.60;;;;;;5101242;28;19928;-76
2022/06/22 13:08:18;;;;;;;;;;;26.10;99.90;;;;;;5111019;28;20429;-76
2022/06/22 13:10:45;;;;;;;;;;;26.20;94.70;;;;;;5121610;28;19920;-76
2022/06/22 13:13:30;;;;;;;;;;;26.50;95.30;;;;;;5112059;28;19968;-76
2022/06/22 13:16:03;;;;;;;;;;;26.90;95.30;;;;;;5111103;28;19973;-76
2022/06/22 13:18:38;;;;;;;;;;;27.40;92.10;;;;;;5109811;28;20333;-76
2022/06/22 13:21:13;;;;;;;;;;;27.20;91.20;;;;;;5110593;28;19950;-76
2022/06/22 13:23:54;;;;;;;;;;;26.90;93.70;;;;;;5098140;28;19935;-76
2022/06/22 13:26:36;;;;;;;;;;;26.70;92.30;;;;;;5097084;28;19919;-76
2022/06/22 13:29:21;;;;;;;;;;;26.50;94.90;;;;;;5114036;28;19973;-76
2022/06/22 13:31:47;;;;;;;;;;;26.60;98.40;;;;;;5119829;27;20392;-76
2022/06/22 13:34:15;;;;;;;;;;;26.20;99.90;;;;;;5121022;27;19927;-76
2022/06/22 13:36:41;;;;;;;;;;;26.00;96.40;;;;;;5096483;28;20106;-77
2022/06/22 13:39:30;;;;;;;;;;;26.00;98.00;;;;;;5114274;28;20016;-77
2022/06/22 13:42:21;;;;;;;;;;;26.10;99.90;;;;;;5090475;27;20379;-76
2022/06/22 13:45:05;;;;;;;;;;;26.20;98.20;;;;;;5113442;28;19935;-77
2022/06/22 13:47:49;;;;;;;;;;;26.20;95.90;;;;;;5113887;28;19973;-77
2022/06/22 13:50:21;;;;;;;;;;;26.30;95.50;;;;;;5109202;27;19920;-77
2022/06/22 13:52:49;;;;;;;;;;;26.40;96.80;;;;;;5113536;28;19924;-77
2022/06/22 13:55:33;;;;;;;;;;;26.10;99.00;;;;;;5112761;28;20011;-77
2022/06/22 13:58:18;;;;;;;;;;;25.90;97.70;;;;;;5113397;28;19926;-76
2022/06/22 14:00:54;;;;;;;;;;;25.90;97.10;;;;;;5113624;28;19968;-76
2022/06/22 14:03:34;;;;;;;;;;;26.20;95.90;;;;;;5112467;28;19927;-77
2022/06/22 14:06:01;;;;;;;;;;;26.50;99.40;;;;;;5113773;28;20281;-77
2022/06/22 14:08:45;;;;;;;;;;;26.60;95.50;;;;;;5113292;28;19927;-76
2022/06/22 14:11:27;;;;;;;;;;;26.70;94.90;;;;;;5125175;27;19923;-76
2022/06/22 14:13:55;;;;;;;;;;;26.80;94.00;;;;;;5096097;28;19924;-76
2022/06/22 14:16:28;;;;;;;;;;;26.50;95.10;;;;;;5113272;28;19924;-76
2022/06/22 14:19:14;;;;;;;;;;;26.10;97.60;;;;;;5095419;28;19998;-76
2022/06/22 14:21:49;;;;;;;;;;;26.20;95.30;;;;;;5127408;27;19999;-76
2022/06/22 14:24:35;;;;;;;;;;;26.60;97.50;;;;;;5133625;27;19959;-76
2022/06/22 14:27:04;;;;;;;;;;;26.80;95.00;;;;;;5130484;27;19920;-76
2022/06/22 14:29:33;;;;;;;;;;;27.00;93.10;;;;;;5104915;28;19923;-76
2022/06/22 14:32:11;;;;;;;;;;;27.00;93.80;;;;;;5129801;27;19923;-76
2022/06/22 14:34:46;;;;;;;;;;;27.30;92.60;;;;;;5132783;27;20376;-77
2022/06/22 14:37:16;;;;;;;;;;;27.30;93.60;;;;;;5126740;27;19923;-77
2022/06/22 14:39:44;;;;;;;;;;;27.50;93.40;;;;;;5112699;28;19926;-77
2022/06/22 14:42:26;;;;;;;;;;;27.20;94.80;;;;;;5131791;27;19919;-77
2022/06/22 14:45:04;;;;;;;;;;;27.10;94.00;;;;;;5131650;27;19936;-76
2022/06/22 14:47:35;;;;;;;;;;;27.00;92.30;;;;;;5133386;27;19926;-76
2022/06/22 14:50:19;;;;;;;;;;;26.60;92.50;;;;;;5109779;27;19942;-75
2022/06/22 14:53:05;;;;;;;;;;;26.80;93.90;;;;;;5112588;28;19931;-76
2022/06/22 14:55:43;;;;;;;;;;;27.10;93.90;;;;;;5112498;28;19931;-76
2022/06/22 14:58:20;;;;;;;;;;;27.30;92.30;;;;;;5109381;27;19989;-77
2022/06/22 15:00:51;;;;;;;;;;;27.20;91.30;;;;;;5132675;27;20022;-76
2022/06/22 15:03:22;;;;;;;;;;;27.00;90.90;;;;;;5132468;27;19926;-76
2022/06/22 15:05:56;;;;;;;;;;;26.80;92.00;;;;;;5118174;27;19977;-76
2022/06/22 15:08:24;;;;;;;;;;;26.90;90.90;;;;;;5113969;28;19968;-76
2022/06/22 15:10:54;;;;;;;;;;;27.30;91.80;;;;;;5112062;28;19924;-76
2022/06/22 15:13:40;;;;;;;;;;;27.70;92.00;;;;;;5126028;27;20384;-76
2022/06/22 15:16:12;;;;;;;;;;;28.40;90.90;;;;;;5108796;27;19919;-76